sensor_id;sensor_type;location;lat;lon;timestamp;temperature;humidity
68139;DHT22;54940;50.842;4.410;2023-02-15T00:01:54;5.70;99.90
68139;DHT22;54940;50.842;4.410;2023-02-15T00:04:23;5.70;99.90
68139;DHT22;54940;50.842;4.410;2023-02-15T00:06:49;5.60;99.90
68139;DHT22;54940;50.842;4.410;2023-02-15T00:09:15;5.70;99.90
68139;DHT22;54940;50.842;4.410;2023-02-15T00:11:41;5.60;99.90
68139;DHT22;54940;50.842;4.410;2023-02-15T00:14:23;5.70;99.90
68139;DHT22;54940;50.842;4.410;2023-02-15T00:16:50;5.70;99.90
68139;DHT22;54940;50.842;4.410;2023-02-15T00:19:18;5.70;99.90
68139;DHT22;54940;50.842;4.410;2023-02-15T00:21:45;5.70;99.90
68139;DHT22;54940;50.842;4.410;2023-02-15T00:24:13;5.60;99.90
68139;DHT22;54940;50.842;4.410;2023-02-15T00:26:40;5.60;99.90
68139;DHT22;54940;50.842;4.410;2023-02-15T00:29:06;5.60;99.90
68139;DHT22;54940;50.842;4.410;2023-02-15T00:31:32;5.60;99.90
68139;DHT22;54940;50.842;4.410;2023-02-15T00:36:31;5.60;99.90
68139;DHT22;54940;50.842;4.410;2023-02-15T00:38:57;5.50;99.90
68139;DHT22;54940;50.842;4.410;2023-02-15T00:41:23;5.50;99.90
68139;DHT22;54940;50.842;4.410;2023-02-15T00:43:49;5.50;99.90
68139;DHT22;54940;50.842;4.410;2023-02-15T00:46:14;5.50;99.90
68139;DHT22;54940;50.842;4.410;2023-02-15T00:48:40;5.50;99.90
68139;DHT22;54940;50.842;4.410;2023-02-15T00:51:05;5.50;99.90
68139;DHT22;54940;50.842;4.410;2023-02-15T00:53:31;5.50;99.90
68139;DHT22;54940;50.842;4.410;2023-02-15T00:55:57;5.50;99.90
68139;DHT22;54940;50.842;4.410;2023-02-15T00:58:23;5.50;99.90
68139;DHT22;54940;50.842;4.410;2023-02-15T01:00:49;5.50;99.90
68139;DHT22;54940;50.842;4.410;2023-02-15T01:03:16;5.60;99.90
68139;DHT22;54940;50.842;4.410;2023-02-15T01:05:42;5.50;99.90
68139;DHT22;54940;50.842;4.410;2023-02-15T01:08:08;5.50;99.90
68139;DHT22;54940;50.842;4.410;2023-02-15T01:10:35;5.50;99.90
68139;DHT22;54940;50.842;4.410;2023-02-15T01:13:01;5.50;99.90
68139;DHT22;54940;50.842;4.410;2023-02-15T01:15:27;5.40;99.90
68139;DHT22;54940;50.842;4.410;2023-02-15T01:17:53;5.40;99.90
68139;DHT22;54940;50.842;4.410;2023-02-15T01:20:20;5.40;99.90
68139;DHT22;54940;50.842;4.410;2023-02-15T01:22:46;5.40;99.90
68139;DHT22;54940;50.842;4.410;2023-02-15T01:25:12;5.40;99.90
68139;DHT22;54940;50.842;4.410;2023-02-15T01:27:37;5.40;99.90
68139;DHT22;54940;50.842;4.410;2023-02-15T01:30:04;5.40;99.90
68139;DHT22;54940;50.842;4.410;2023-02-15T01:32:30;5.40;99.90
68139;DHT22;54940;50.842;4.410;2023-02-15T01:34:56;5.30;99.90
68139;DHT22;54940;50.842;4.410;2023-02-15T01:37:22;5.30;99.90
68139;DHT22;54940;50.842;4.410;2023-02-15T01:39:48;5.30;99.90
68139;DHT22;54940;50.842;4.410;2023-02-15T01:42:13;5.30;99.90
68139;DHT22;54940;50.842;4.410;2023-02-15T01:44:54;5.30;99.90
68139;DHT22;54940;50.842;4.410;2023-02-15T01:50:19;5.30;99.90
68139;DHT22;54940;50.842;4.410;2023-02-15T01:52:54;5.20;99.90
68139;DHT22;54940;50.842;4.410;2023-02-15T01:55:21;5.30;99.90
68139;DHT22;54940;50.842;4.410;2023-02-15T01:57:48;5.20;99.90
68139;DHT22;54940;50.842;4.410;2023-02-15T02:00:15;5.20;99.90
68139;DHT22;54940;50.842;4.410;2023-02-15T02:02:43;5.20;99.90
68139;DHT22;54940;50.842;4.410;2023-02-15T02:05:10;5.20;99.90
68139;DHT22;54940;50.842;4.410;2023-02-15T02:07:42;5.20;99.90
68139;DHT22;54940;50.842;4.410;2023-02-15T02:10:12;5.20;99.90
68139;DHT22;54940;50.842;4.410;2023-02-15T02:12:39;5.10;99.90
68139;DHT22;54940;50.842;4.410;2023-02-15T02:15:06;5.10;99.90
68139;DHT22;54940;50.842;4.410;2023-02-15T02:17:51;5.10;99.90
68139;DHT22;54940;50.842;4.410;2023-02-15T02:35:00;5.00;99.90
68139;DHT22;54940;50.842;4.410;2023-02-15T02:40:13;5.00;99.90
68139;DHT22;54940;50.842;4.410;2023-02-15T02:42:43;5.00;99.90
68139;DHT22;54940;50.842;4.410;2023-02-15T02:45:17;5.00;99.90
68139;DHT22;54940;50.842;4.410;2023-02-15T02:48:02;5.00;99.90
68139;DHT22;54940;50.842;4.410;2023-02-15T02:50:29;4.90;99.90
68139;DHT22;54940;50.842;4.410;2023-02-15T02:52:57;4.90;99.90
68139;DHT22;54940;50.842;4.410;2023-02-15T03:06:09;4.80;99.90
68139;DHT22;54940;50.842;4.410;2023-02-15T03:08:40;4.80;99.90
68139;DHT22;54940;50.842;4.410;2023-02-15T03:11:07;4.80;99.90
68139;DHT22;54940;50.842;4.410;2023-02-15T03:13:33;4.80;99.90
68139;DHT22;54940;50.842;4.410;2023-02-15T03:16:00;4.80;99.90
68139;DHT22;54940;50.842;4.410;2023-02-15T03:18:53;4.80;99.90
68139;DHT22;54940;50.842;4.410;2023-02-15T03:24:05;4.70;99.90
68139;DHT22;54940;50.842;4.410;2023-02-15T03:26:34;4.70;99.90
68139;DHT22;54940;50.842;4.410;2023-02-15T03:29:03;4.70;99.90
68139;DHT22;54940;50.842;4.410;2023-02-15T03:31:32;4.70;99.90
68139;DHT22;54940;50.842;4.410;2023-02-15T03:34:03;4.70;99.90
68139;DHT22;54940;50.842;4.410;2023-02-15T03:40:39;4.70;99.90
68139;DHT22;54940;50.842;4.410;2023-02-15T03:45:57;4.70;99.90
68139;DHT22;54940;50.842;4.410;2023-02-15T03:48:40;4.60;99.90
68139;DHT22;54940;50.842;4.410;2023-02-15T03:51:18;4.60;99.90
68139;DHT22;54940;50.842;4.410;2023-02-15T03:56:40;4.60;99.90
68139;DHT22;54940;50.842;4.410;2023-02-15T03:59:06;4.60;99.90
68139;DHT22;54940;50.842;4.410;2023-02-15T04:04:37;4.50;99.90
68139;DHT22;54940;50.842;4.410;2023-02-15T04:07:07;4.50;99.90
68139;DHT22;54940;50.842;4.410;2023-02-15T04:09:33;4.60;99.90
68139;DHT22;54940;50.842;4.410;2023-02-15T04:12:17;4.50;99.90
68139;DHT22;54940;50.842;4.410;2023-02-15T04:14:43;4.50;99.90
68139;DHT22;54940;50.842;4.410;2023-02-15T04:17:28;4.50;99.90
68139;DHT22;54940;50.842;4.410;2023-02-15T04:19:54;4.50;99.90
68139;DHT22;54940;50.842;4.410;2023-02-15T04:22:39;4.50;99.90
68139;DHT22;54940;50.842;4.410;2023-02-15T04:25:23;4.40;99.90
68139;DHT22;54940;50.842;4.410;2023-02-15T04:27:50;4.50;99.90
68139;DHT22;54940;50.842;4.410;2023-02-15T04:30:18;4.40;99.90
68139;DHT22;54940;50.842;4.410;2023-02-15T04:32:45;4.40;99.90
68139;DHT22;54940;50.842;4.410;2023-02-15T04:35:11;4.40;99.90
68139;DHT22;54940;50.842;4.410;2023-02-15T04:37:38;4.40;99.90
68139;DHT22;54940;50.842;4.410;2023-02-15T04:40:05;4.40;99.90
68139;DHT22;54940;50.842;4.410;2023-02-15T04:42:31;4.40;99.90
68139;DHT22;54940;50.842;4.410;2023-02-15T04:44:56;4.40;99.90
68139;DHT22;54940;50.842;4.410;2023-02-15T04:47:22;4.30;99.90
68139;DHT22;54940;50.842;4.410;2023-02-15T04:49:48;4.30;99.90
68139;DHT22;54940;50.842;4.410;2023-02-15T04:52:15;4.30;99.90
68139;DHT22;54940;50.842;4.410;2023-02-15T04:54:42;4.30;99.90
68139;DHT22;54940;50.842;4.410;2023-02-15T04:57:08;4.30;99.90
68139;DHT22;54940;50.842;4.410;2023-02-15T04:59:33;4.30;99.90
68139;DHT22;54940;50.842;4.410;2023-02-15T05:01:59;4.30;99.90
68139;DHT22;54940;50.842;4.410;2023-02-15T05:04:25;4.30;99.90
68139;DHT22;54940;50.842;4.410;2023-02-15T05:06:51;4.30;99.90
68139;DHT22;54940;50.842;4.410;2023-02-15T05:09:16;4.30;99.90
68139;DHT22;54940;50.842;4.410;2023-02-15T05:11:42;4.30;99.90
68139;DHT22;54940;50.842;4.410;2023-02-15T05:14:08;4.30;99.90
68139;DHT22;54940;50.842;4.410;2023-02-15T05:16:33;4.30;99.90
68139;DHT22;54940;50.842;4.410;2023-02-15T05:18:59;4.30;99.90
68139;DHT22;54940;50.842;4.410;2023-02-15T05:21:25;4.20;99.90
68139;DHT22;54940;50.842;4.410;2023-02-15T05:23:50;4.20;99.90
68139;DHT22;54940;50.842;4.410;2023-02-15T05:26:19;4.20;99.90
68139;DHT22;54940;50.842;4.410;2023-02-15T05:29:03;4.20;99.90
68139;DHT22;54940;50.842;4.410;2023-02-15T05:31:30;4.20;99.90
68139;DHT22;54940;50.842;4.410;2023-02-15T05:33:56;4.20;99.90
68139;DHT22;54940;50.842;4.410;2023-02-15T05:36:22;4.20;99.90
68139;DHT22;54940;50.842;4.410;2023-02-15T05:38:48;4.20;99.90
68139;DHT22;54940;50.842;4.410;2023-02-15T05:41:13;4.20;99.90
68139;DHT22;54940;50.842;4.410;2023-02-15T05:43:39;4.20;99.90
68139;DHT22;54940;50.842;4.410;2023-02-15T05:46:05;4.10;99.90
68139;DHT22;54940;50.842;4.410;2023-02-15T05:48:32;4.20;99.90
68139;DHT22;54940;50.842;4.410;2023-02-15T05:51:07;4.20;99.90
68139;DHT22;54940;50.842;4.410;2023-02-15T05:53:35;4.20;99.90
68139;DHT22;54940;50.842;4.410;2023-02-15T05:56:02;4.20;99.90
68139;DHT22;54940;50.842;4.410;2023-02-15T05:58:31;4.10;99.90
68139;DHT22;54940;50.842;4.410;2023-02-15T06:00:57;4.10;99.90
68139;DHT22;54940;50.842;4.410;2023-02-15T06:03:23;4.10;99.90
68139;DHT22;54940;50.842;4.410;2023-02-15T06:05:51;4.10;99.90
68139;DHT22;54940;50.842;4.410;2023-02-15T06:08:17;4.10;99.90
68139;DHT22;54940;50.842;4.410;2023-02-15T06:10:45;4.10;99.90
68139;DHT22;54940;50.842;4.410;2023-02-15T06:13:11;4.10;99.90
68139;DHT22;54940;50.842;4.410;2023-02-15T06:15:36;4.10;99.90
68139;DHT22;54940;50.842;4.410;2023-02-15T06:18:02;4.10;99.90
68139;DHT22;54940;50.842;4.410;2023-02-15T06:20:28;4.10;99.90
68139;DHT22;54940;50.842;4.410;2023-02-15T06:22:53;4.10;99.90
68139;DHT22;54940;50.842;4.410;2023-02-15T06:25:19;4.10;99.90
68139;DHT22;54940;50.842;4.410;2023-02-15T06:27:45;4.10;99.90
68139;DHT22;54940;50.842;4.410;2023-02-15T06:30:11;4.10;99.90
68139;DHT22;54940;50.842;4.410;2023-02-15T06:32:37;4.10;99.90
68139;DHT22;54940;50.842;4.410;2023-02-15T06:35:03;4.00;99.90
68139;DHT22;54940;50.842;4.410;2023-02-15T06:37:29;4.00;99.90
68139;DHT22;54940;50.842;4.410;2023-02-15T06:39:55;4.00;99.90
68139;DHT22;54940;50.842;4.410;2023-02-15T06:42:21;4.00;99.90
68139;DHT22;54940;50.842;4.410;2023-02-15T06:44:47;4.00;99.90
68139;DHT22;54940;50.842;4.410;2023-02-15T06:47:13;4.00;99.90
68139;DHT22;54940;50.842;4.410;2023-02-15T06:49:38;4.00;99.90
68139;DHT22;54940;50.842;4.410;2023-02-15T06:52:05;4.00;99.90
68139;DHT22;54940;50.842;4.410;2023-02-15T06:54:30;4.00;99.90
68139;DHT22;54940;50.842;4.410;2023-02-15T06:56:56;4.00;99.90
68139;DHT22;54940;50.842;4.410;2023-02-15T06:59:22;4.00;99.90
68139;DHT22;54940;50.842;4.410;2023-02-15T07:01:48;4.00;99.90
68139;DHT22;54940;50.842;4.410;2023-02-15T07:04:15;4.00;99.90
68139;DHT22;54940;50.842;4.410;2023-02-15T07:06:40;3.90;99.90
68139;DHT22;54940;50.842;4.410;2023-02-15T07:09:07;4.00;99.90
68139;DHT22;54940;50.842;4.410;2023-02-15T07:11:32;3.90;99.90
68139;DHT22;54940;50.842;4.410;2023-02-15T07:14:16;3.90;99.90
68139;DHT22;54940;50.842;4.410;2023-02-15T07:16:42;3.90;99.90
68139;DHT22;54940;50.842;4.410;2023-02-15T07:19:08;4.00;99.90
68139;DHT22;54940;50.842;4.410;2023-02-15T07:21:35;4.00;99.90
68139;DHT22;54940;50.842;4.410;2023-02-15T07:24:01;4.00;99.90
68139;DHT22;54940;50.842;4.410;2023-02-15T07:26:27;4.10;99.90
68139;DHT22;54940;50.842;4.410;2023-02-15T07:28:52;4.10;99.90
68139;DHT22;54940;50.842;4.410;2023-02-15T07:31:18;4.10;99.90
68139;DHT22;54940;50.842;4.410;2023-02-15T07:33:44;4.10;99.90
68139;DHT22;54940;50.842;4.410;2023-02-15T07:36:09;4.10;99.90
68139;DHT22;54940;50.842;4.410;2023-02-15T07:38:39;4.10;99.90
68139;DHT22;54940;50.842;4.410;2023-02-15T07:41:07;4.10;99.90
68139;DHT22;54940;50.842;4.410;2023-02-15T07:43:38;4.10;99.90
68139;DHT22;54940;50.842;4.410;2023-02-15T07:46:08;4.20;99.90
68139;DHT22;54940;50.842;4.410;2023-02-15T07:48:35;4.20;99.90
68139;DHT22;54940;50.842;4.410;2023-02-15T07:51:03;4.20;99.90
68139;DHT22;54940;50.842;4.410;2023-02-15T07:53:29;4.20;99.90
68139;DHT22;54940;50.842;4.410;2023-02-15T07:55:59;4.20;99.90
68139;DHT22;54940;50.842;4.410;2023-02-15T07:58:25;4.30;99.90
68139;DHT22;54940;50.842;4.410;2023-02-15T08:01:10;4.40;99.90
68139;DHT22;54940;50.842;4.410;2023-02-15T08:03:36;4.40;99.90
68139;DHT22;54940;50.842;4.410;2023-02-15T08:06:02;4.40;99.90
68139;DHT22;54940;50.842;4.410;2023-02-15T08:08:28;4.50;99.90
68139;DHT22;54940;50.842;4.410;2023-02-15T08:11:07;4.50;99.90
68139;DHT22;54940;50.842;4.410;2023-02-15T08:13:55;4.60;99.90
68139;DHT22;54940;50.842;4.410;2023-02-15T08:16:40;4.70;99.90
68139;DHT22;54940;50.842;4.410;2023-02-15T08:19:14;4.80;99.90
68139;DHT22;54940;50.842;4.410;2023-02-15T08:21:48;4.90;99.90
68139;DHT22;54940;50.842;4.410;2023-02-15T08:24:16;5.00;99.90
68139;DHT22;54940;50.842;4.410;2023-02-15T08:26:43;5.00;99.90
68139;DHT22;54940;50.842;4.410;2023-02-15T08:29:18;5.10;99.90
68139;DHT22;54940;50.842;4.410;2023-02-15T08:31:44;5.10;99.90
68139;DHT22;54940;50.842;4.410;2023-02-15T08:34:11;5.20;99.90
68139;DHT22;54940;50.842;4.410;2023-02-15T08:36:41;5.20;99.90
68139;DHT22;54940;50.842;4.410;2023-02-15T08:39:07;5.30;99.90
68139;DHT22;54940;50.842;4.410;2023-02-15T08:41:37;5.30;99.90
68139;DHT22;54940;50.842;4.410;2023-02-15T08:44:06;5.40;99.90
68139;DHT22;54940;50.842;4.410;2023-02-15T08:46:37;5.50;99.90
68139;DHT22;54940;50.842;4.410;2023-02-15T08:49:03;5.60;99.90
68139;DHT22;54940;50.842;4.410;2023-02-15T08:51:34;5.80;99.90
68139;DHT22;54940;50.842;4.410;2023-02-15T08:54:03;6.00;99.90
68139;DHT22;54940;50.842;4.410;2023-02-15T08:56:34;6.30;99.90
68139;DHT22;54940;50.842;4.410;2023-02-15T08:59:02;6.60;99.90
68139;DHT22;54940;50.842;4.410;2023-02-15T09:01:32;6.60;99.90
68139;DHT22;54940;50.842;4.410;2023-02-15T09:04:03;6.90;99.90
68139;DHT22;54940;50.842;4.410;2023-02-15T09:06:31;7.00;99.90
68139;DHT22;54940;50.842;4.410;2023-02-15T09:08:57;7.00;99.90
68139;DHT22;54940;50.842;4.410;2023-02-15T09:11:27;7.10;99.90
68139;DHT22;54940;50.842;4.410;2023-02-15T09:16:22;7.30;99.90
68139;DHT22;54940;50.842;4.410;2023-02-15T09:18:49;7.40;99.90
68139;DHT22;54940;50.842;4.410;2023-02-15T09:21:18;7.40;99.90
68139;DHT22;54940;50.842;4.410;2023-02-15T09:23:46;7.40;99.90
68139;DHT22;54940;50.842;4.410;2023-02-15T09:26:15;7.50;99.90
68139;DHT22;54940;50.842;4.410;2023-02-15T09:28:42;7.70;99.90
68139;DHT22;54940;50.842;4.410;2023-02-15T09:31:14;7.80;99.90
68139;DHT22;54940;50.842;4.410;2023-02-15T09:33:41;8.00;99.90
68139;DHT22;54940;50.842;4.410;2023-02-15T09:36:34;8.10;99.90
68139;DHT22;54940;50.842;4.410;2023-02-15T09:39:15;8.00;99.90
68139;DHT22;54940;50.842;4.410;2023-02-15T09:55:38;8.20;99.90
68139;DHT22;54940;50.842;4.410;2023-02-15T10:04:03;8.80;99.90
68139;DHT22;54940;50.842;4.410;2023-02-15T10:09:45;8.70;99.90
68139;DHT22;54940;50.842;4.410;2023-02-15T10:12:31;8.80;99.90
68139;DHT22;54940;50.842;4.410;2023-02-15T10:17:40;9.00;99.90
68139;DHT22;54940;50.842;4.410;2023-02-15T10:28:19;9.40;99.90
68139;DHT22;54940;50.842;4.410;2023-02-15T10:30:50;9.50;99.90
68139;DHT22;54940;50.842;4.410;2023-02-15T10:33:43;9.50;99.90
68139;DHT22;54940;50.842;4.410;2023-02-15T10:42:05;9.60;99.90
68139;DHT22;54940;50.842;4.410;2023-02-15T11:00:49;10.10;99.90
68139;DHT22;54940;50.842;4.410;2023-02-15T11:06:07;10.10;99.90
68139;DHT22;54940;50.842;4.410;2023-02-15T11:08:43;10.10;99.90
68139;DHT22;54940;50.842;4.410;2023-02-15T11:11:26;10.20;99.90
68139;DHT22;54940;50.842;4.410;2023-02-15T11:14:01;10.30;99.90
68139;DHT22;54940;50.842;4.410;2023-02-15T11:16:36;10.40;99.90
68139;DHT22;54940;50.842;4.410;2023-02-15T11:19:13;10.50;99.90
68139;DHT22;54940;50.842;4.410;2023-02-15T11:21:48;10.50;99.90
68139;DHT22;54940;50.842;4.410;2023-02-15T11:24:19;10.40;99.90
68139;DHT22;54940;50.842;4.410;2023-02-15T11:27:02;10.50;99.90
68139;DHT22;54940;50.842;4.410;2023-02-15T11:29:36;10.50;99.90
68139;DHT22;54940;50.842;4.410;2023-02-15T11:32:28;10.50;99.90
68139;DHT22;54940;50.842;4.410;2023-02-15T11:37:37;10.60;99.90
68139;DHT22;54940;50.842;4.410;2023-02-15T11:42:46;10.90;99.90
68139;DHT22;54940;50.842;4.410;2023-02-15T11:45:33;11.00;99.90
68139;DHT22;54940;50.842;4.410;2023-02-15T11:48:10;11.00;99.90
68139;DHT22;54940;50.842;4.410;2023-02-15T11:50:37;11.10;99.90
68139;DHT22;54940;50.842;4.410;2023-02-15T11:53:15;11.10;99.90
68139;DHT22;54940;50.842;4.410;2023-02-15T11:55:45;11.30;99.90
68139;DHT22;54940;50.842;4.410;2023-02-15T12:03:50;11.40;99.90
68139;DHT22;54940;50.842;4.410;2023-02-15T12:06:21;11.40;99.90
68139;DHT22;54940;50.842;4.410;2023-02-15T12:11:35;11.40;99.90
68139;DHT22;54940;50.842;4.410;2023-02-15T12:14:07;11.30;99.90
68139;DHT22;54940;50.842;4.410;2023-02-15T12:16:46;11.40;99.90
68139;DHT22;54940;50.842;4.410;2023-02-15T12:19:31;11.40;99.90
68139;DHT22;54940;50.842;4.410;2023-02-15T12:21:59;11.40;99.90
68139;DHT22;54940;50.842;4.410;2023-02-15T12:24:38;11.50;99.90
68139;DHT22;54940;50.842;4.410;2023-02-15T12:27:19;11.50;99.90
68139;DHT22;54940;50.842;4.410;2023-02-15T12:29:50;11.60;99.90
68139;DHT22;54940;50.842;4.410;2023-02-15T12:32:24;11.60;99.90
68139;DHT22;54940;50.842;4.410;2023-02-15T12:34:55;11.70;99.90
68139;DHT22;54940;50.842;4.410;2023-02-15T12:37:27;11.80;99.90
68139;DHT22;54940;50.842;4.410;2023-02-15T12:39:55;12.00;99.90
68139;DHT22;54940;50.842;4.410;2023-02-15T12:42:22;12.10;99.90
68139;DHT22;54940;50.842;4.410;2023-02-15T12:44:59;12.20;99.90
68139;DHT22;54940;50.842;4.410;2023-02-15T12:47:26;12.30;99.90
68139;DHT22;54940;50.842;4.410;2023-02-15T12:53:07;12.50;99.90
68139;DHT22;54940;50.842;4.410;2023-02-15T12:55:33;12.50;99.90
68139;DHT22;54940;50.842;4.410;2023-02-15T12:58:16;12.50;99.90
68139;DHT22;54940;50.842;4.410;2023-02-15T13:00:43;12.50;99.90
68139;DHT22;54940;50.842;4.410;2023-02-15T13:03:20;12.50;99.90
68139;DHT22;54940;50.842;4.410;2023-02-15T13:05:50;12.50;99.90
68139;DHT22;54940;50.842;4.410;2023-02-15T13:08:28;12.50;99.90
68139;DHT22;54940;50.842;4.410;2023-02-15T13:11:10;12.50;99.90
68139;DHT22;54940;50.842;4.410;2023-02-15T13:13:51;12.50;99.90
68139;DHT22;54940;50.842;4.410;2023-02-15T13:16:53;12.50;99.90
68139;DHT22;54940;50.842;4.410;2023-02-15T13:19:27;12.50;99.90
68139;DHT22;54940;50.842;4.410;2023-02-15T13:21:57;12.50;99.90
68139;DHT22;54940;50.842;4.410;2023-02-15T13:24:30;12.50;99.90
68139;DHT22;54940;50.842;4.410;2023-02-15T13:26:59;12.60;99.90
68139;DHT22;54940;50.842;4.410;2023-02-15T13:29:26;12.70;99.90
68139;DHT22;54940;50.842;4.410;2023-02-15T13:31:54;12.70;99.90
68139;DHT22;54940;50.842;4.410;2023-02-15T13:34:31;12.80;99.90
68139;DHT22;54940;50.842;4.410;2023-02-15T13:42:48;12.80;99.90
68139;DHT22;54940;50.842;4.410;2023-02-15T13:59:30;12.70;99.90
68139;DHT22;54940;50.842;4.410;2023-02-15T14:05:10;12.70;99.90
68139;DHT22;54940;50.842;4.410;2023-02-15T14:08:04;12.70;99.90
68139;DHT22;54940;50.842;4.410;2023-02-15T14:13:38;12.60;99.90
68139;DHT22;54940;50.842;4.410;2023-02-15T14:16:41;12.60;99.90
68139;DHT22;54940;50.842;4.410;2023-02-15T14:19:22;12.50;99.90
68139;DHT22;54940;50.842;4.410;2023-02-15T14:21:56;12.50;99.90
68139;DHT22;54940;50.842;4.410;2023-02-15T14:32:39;12.50;99.90
68139;DHT22;54940;50.842;4.410;2023-02-15T14:35:21;12.50;99.90
68139;DHT22;54940;50.842;4.410;2023-02-15T14:46:06;12.40;99.90
68139;DHT22;54940;50.842;4.410;2023-02-15T14:48:50;12.30;99.90
68139;DHT22;54940;50.842;4.410;2023-02-15T14:56:47;12.40;99.90
68139;DHT22;54940;50.842;4.410;2023-02-15T15:04:56;12.20;99.90
68139;DHT22;54940;50.842;4.410;2023-02-15T15:07:45;12.20;99.90
68139;DHT22;54940;50.842;4.410;2023-02-15T15:12:44;12.20;99.90
68139;DHT22;54940;50.842;4.410;2023-02-15T15:28:08;12.10;99.90
68139;DHT22;54940;50.842;4.410;2023-02-15T15:30:46;12.10;99.90
68139;DHT22;54940;50.842;4.410;2023-02-15T15:39:46;12.00;99.90
68139;DHT22;54940;50.842;4.410;2023-02-15T15:45:03;12.00;99.90
68139;DHT22;54940;50.842;4.410;2023-02-15T15:48:01;12.10;99.90
68139;DHT22;54940;50.842;4.410;2023-02-15T15:50:32;12.10;99.90
68139;DHT22;54940;50.842;4.410;2023-02-15T15:53:00;12.00;99.90
68139;DHT22;54940;50.842;4.410;2023-02-15T15:55:30;12.00;99.90
68139;DHT22;54940;50.842;4.410;2023-02-15T15:58:00;11.90;99.90
68139;DHT22;54940;50.842;4.410;2023-02-15T16:00:44;11.80;99.90
68139;DHT22;54940;50.842;4.410;2023-02-15T16:03:32;11.90;99.90
68139;DHT22;54940;50.842;4.410;2023-02-15T16:05:59;11.80;99.90
68139;DHT22;54940;50.842;4.410;2023-02-15T16:08:38;11.80;99.90
68139;DHT22;54940;50.842;4.410;2023-02-15T16:11:19;11.70;99.90
68139;DHT22;54940;50.842;4.410;2023-02-15T16:13:47;11.70;99.90
68139;DHT22;54940;50.842;4.410;2023-02-15T16:16:19;11.70;99.90
68139;DHT22;54940;50.842;4.410;2023-02-15T16:18:47;11.80;99.90
68139;DHT22;54940;50.842;4.410;2023-02-15T16:21:26;11.80;99.90
68139;DHT22;54940;50.842;4.410;2023-02-15T16:27:38;11.70;99.90
68139;DHT22;54940;50.842;4.410;2023-02-15T16:30:24;11.50;99.90
68139;DHT22;54940;50.842;4.410;2023-02-15T16:33:14;11.50;99.90
68139;DHT22;54940;50.842;4.410;2023-02-15T16:35:56;11.40;99.90
68139;DHT22;54940;50.842;4.410;2023-02-15T16:39:07;11.30;99.90
68139;DHT22;54940;50.842;4.410;2023-02-15T16:41:36;11.30;99.90
68139;DHT22;54940;50.842;4.410;2023-02-15T16:44:07;11.40;99.90
68139;DHT22;54940;50.842;4.410;2023-02-15T16:46:42;11.40;99.90
68139;DHT22;54940;50.842;4.410;2023-02-15T16:49:21;11.40;99.90
68139;DHT22;54940;50.842;4.410;2023-02-15T16:52:23;11.30;99.90
68139;DHT22;54940;50.842;4.410;2023-02-15T16:55:18;11.20;99.90
68139;DHT22;54940;50.842;4.410;2023-02-15T16:57:42;11.20;99.90
68139;DHT22;54940;50.842;4.410;2023-02-15T17:00:18;11.20;99.90
68139;DHT22;54940;50.842;4.410;2023-02-15T17:03:04;11.10;99.90
68139;DHT22;54940;50.842;4.410;2023-02-15T17:05:40;11.10;99.90
68139;DHT22;54940;50.842;4.410;2023-02-15T17:11:04;11.00;99.90
68139;DHT22;54940;50.842;4.410;2023-02-15T17:13:31;11.00;99.90
68139;DHT22;54940;50.842;4.410;2023-02-15T17:18:31;11.00;99.90
68139;DHT22;54940;50.842;4.410;2023-02-15T17:21:08;11.00;99.90
68139;DHT22;54940;50.842;4.410;2023-02-15T17:23:52;10.90;99.90
68139;DHT22;54940;50.842;4.410;2023-02-15T17:26:43;10.90;99.90
68139;DHT22;54940;50.842;4.410;2023-02-15T17:31:50;10.80;99.90
68139;DHT22;54940;50.842;4.410;2023-02-15T17:34:49;10.70;99.90
68139;DHT22;54940;50.842;4.410;2023-02-15T17:39:51;10.40;99.90
68139;DHT22;54940;50.842;4.410;2023-02-15T17:42:17;10.40;99.90
68139;DHT22;54940;50.842;4.410;2023-02-15T17:44:43;10.40;99.90
68139;DHT22;54940;50.842;4.410;2023-02-15T17:47:21;10.30;99.90
68139;DHT22;54940;50.842;4.410;2023-02-15T17:49:48;10.30;99.90
68139;DHT22;54940;50.842;4.410;2023-02-15T17:52:17;10.30;99.90
68139;DHT22;54940;50.842;4.410;2023-02-15T17:54:43;10.30;99.90
68139;DHT22;54940;50.842;4.410;2023-02-15T17:57:28;10.30;99.90
68139;DHT22;54940;50.842;4.410;2023-02-15T17:59:55;10.20;99.90
68139;DHT22;54940;50.842;4.410;2023-02-15T18:02:40;10.10;99.90
68139;DHT22;54940;50.842;4.410;2023-02-15T18:05:25;10.10;99.90
68139;DHT22;54940;50.842;4.410;2023-02-15T18:08:14;10.20;99.90
68139;DHT22;54940;50.842;4.410;2023-02-15T18:10:59;10.20;99.90
68139;DHT22;54940;50.842;4.410;2023-02-15T18:13:44;10.20;99.90
68139;DHT22;54940;50.842;4.410;2023-02-15T18:16:24;10.10;99.90
68139;DHT22;54940;50.842;4.410;2023-02-15T18:18:51;10.20;99.90
68139;DHT22;54940;50.842;4.410;2023-02-15T18:21:18;10.10;99.90
68139;DHT22;54940;50.842;4.410;2023-02-15T18:23:47;10.10;99.90
68139;DHT22;54940;50.842;4.410;2023-02-15T18:26:20;10.10;99.90
68139;DHT22;54940;50.842;4.410;2023-02-15T18:28:46;10.00;99.90
68139;DHT22;54940;50.842;4.410;2023-02-15T18:31:13;10.00;99.90
68139;DHT22;54940;50.842;4.410;2023-02-15T18:34:25;10.00;99.90
68139;DHT22;54940;50.842;4.410;2023-02-15T18:36:52;10.00;99.90
68139;DHT22;54940;50.842;4.410;2023-02-15T18:41:50;9.90;99.90
68139;DHT22;54940;50.842;4.410;2023-02-15T18:44:16;9.90;99.90
68139;DHT22;54940;50.842;4.410;2023-02-15T18:46:41;9.80;99.90
68139;DHT22;54940;50.842;4.410;2023-02-15T18:49:07;9.70;99.90
68139;DHT22;54940;50.842;4.410;2023-02-15T18:51:33;9.70;99.90
68139;DHT22;54940;50.842;4.410;2023-02-15T18:54:05;9.70;99.90
68139;DHT22;54940;50.842;4.410;2023-02-15T18:56:35;9.70;99.90
68139;DHT22;54940;50.842;4.410;2023-02-15T18:59:02;9.70;99.90
68139;DHT22;54940;50.842;4.410;2023-02-15T19:01:28;9.70;99.90
68139;DHT22;54940;50.842;4.410;2023-02-15T19:03:54;9.70;99.90
68139;DHT22;54940;50.842;4.410;2023-02-15T19:06:21;9.70;99.90
68139;DHT22;54940;50.842;4.410;2023-02-15T19:08:51;9.70;99.90
68139;DHT22;54940;50.842;4.410;2023-02-15T19:11:20;9.60;99.90
68139;DHT22;54940;50.842;4.410;2023-02-15T19:13:48;9.60;99.90
68139;DHT22;54940;50.842;4.410;2023-02-15T19:16:34;9.60;99.90
68139;DHT22;54940;50.842;4.410;2023-02-15T19:19:00;9.60;99.90
68139;DHT22;54940;50.842;4.410;2023-02-15T19:21:28;9.50;99.90
68139;DHT22;54940;50.842;4.410;2023-02-15T19:24:07;9.50;99.90
68139;DHT22;54940;50.842;4.410;2023-02-15T19:26:39;9.50;99.90
68139;DHT22;54940;50.842;4.410;2023-02-15T19:29:09;9.50;99.90
68139;DHT22;54940;50.842;4.410;2023-02-15T19:31:36;9.50;99.90
68139;DHT22;54940;50.842;4.410;2023-02-15T19:34:13;9.50;99.90
68139;DHT22;54940;50.842;4.410;2023-02-15T19:36:39;9.50;99.90
68139;DHT22;54940;50.842;4.410;2023-02-15T19:39:05;9.40;99.90
68139;DHT22;54940;50.842;4.410;2023-02-15T19:41:32;9.40;99.90
68139;DHT22;54940;50.842;4.410;2023-02-15T19:43:58;9.40;99.90
68139;DHT22;54940;50.842;4.410;2023-02-15T19:46:25;9.40;99.90
68139;DHT22;54940;50.842;4.410;2023-02-15T19:48:52;9.30;99.90